EGOP - Pembrey Sands
Distance from station: E 5mi, 14km
Updated: 10/18/2017 6:50am
Mostly Cloudy
Mostly Cloudy
 Wind from ESE
Wind: ESE 10 mph , 17 km/h
Temperature: 55°F , 13°C
Dew Point: 52°F , 11°C
Humidity: 88%
Barometer: 29.8 inHg , 1009 hPa
Clouds: Mostly Cloudy
Visibility: 6 miles , 10 km
Cloud details: Mostly Cloudy 1300 ft
2017/10/18 13:50 EGOP 181350Z 11009KT 9999 BKN013 13/11 Q1009 GRN